createdAt,value
2023-04-03T00:01:18.161Z,8.70
2023-04-03T00:03:45.355Z,8.70
2023-04-03T00:06:13.232Z,8.50
2023-04-03T00:08:41.677Z,8.40
2023-04-03T00:11:09.714Z,8.20
2023-04-03T00:13:37.852Z,8.10
2023-04-03T00:16:05.751Z,8.10
2023-04-03T00:18:33.051Z,8.10
2023-04-03T00:21:00.114Z,8.00
2023-04-03T00:23:27.317Z,8.10
2023-04-03T00:25:54.590Z,8.10
2023-04-03T00:28:21.883Z,8.00
2023-04-03T00:30:51.269Z,8.00
2023-04-03T00:33:18.563Z,8.00
2023-04-03T00:35:45.806Z,7.90
2023-04-03T00:38:12.990Z,7.90
2023-04-03T00:40:45.359Z,7.90
2023-04-03T00:43:15.847Z,7.80
2023-04-03T00:45:46.911Z,7.80
2023-04-03T00:48:21.438Z,7.70
2023-04-03T00:50:49.473Z,7.60
2023-04-03T00:53:23.464Z,7.70
2023-04-03T00:55:52.149Z,7.70
2023-04-03T00:58:23.075Z,7.70
2023-04-03T01:00:58.547Z,7.60
2023-04-03T01:03:26.365Z,7.60
2023-04-03T01:05:53.677Z,7.50
2023-04-03T01:08:21.067Z,7.40
2023-04-03T01:10:48.172Z,7.30
2023-04-03T01:13:29.660Z,7.30
2023-04-03T01:15:57.203Z,7.30
2023-04-03T01:18:26.030Z,7.30
2023-04-03T01:21:10.118Z,7.40
2023-04-03T01:24:09.055Z,7.40
2023-04-03T01:26:36.849Z,7.40
2023-04-03T01:29:04.868Z,7.30
2023-04-03T01:31:52.432Z,7.20
2023-04-03T01:34:20.109Z,7.20
2023-04-03T01:36:47.338Z,7.30
2023-04-03T01:39:14.616Z,7.20
2023-04-03T01:41:41.722Z,7.20
2023-04-03T01:44:08.945Z,7.20
2023-04-03T01:46:36.686Z,7.20
2023-04-03T01:49:04.068Z,7.00
2023-04-03T01:51:31.611Z,7.00
2023-04-03T01:53:58.776Z,6.80
2023-04-03T01:56:26.337Z,6.70
2023-04-03T01:58:53.566Z,6.80
2023-04-03T02:01:20.725Z,6.70
2023-04-03T02:03:47.981Z,6.70
2023-04-03T02:06:15.181Z,6.60
2023-04-03T02:08:42.926Z,6.60
2023-04-03T02:11:09.973Z,6.60
2023-04-03T02:13:37.164Z,6.60
2023-04-03T02:16:12.449Z,6.60
2023-04-03T02:18:40.212Z,6.60
2023-04-03T02:21:07.412Z,6.60
2023-04-03T02:23:37.327Z,6.60
2023-04-03T02:26:09.926Z,6.50
2023-04-03T02:28:37.465Z,6.60
2023-04-03T02:31:05.546Z,6.60
2023-04-03T02:33:32.699Z,6.60
2023-04-03T02:36:00.425Z,6.60
2023-04-03T02:38:28.035Z,6.50
2023-04-03T02:40:55.155Z,6.50
2023-04-03T02:43:22.290Z,6.40
2023-04-03T02:45:49.338Z,6.50
2023-04-03T02:48:17.965Z,6.50
2023-04-03T02:50:45.115Z,6.50
2023-04-03T02:53:12.231Z,6.50
2023-04-03T02:55:39.437Z,6.30
2023-04-03T02:58:08.653Z,6.40
2023-04-03T03:00:37.271Z,6.30
2023-04-03T03:03:05.608Z,6.30
2023-04-03T03:05:32.764Z,6.30
2023-04-03T03:07:59.841Z,6.30
2023-04-03T03:10:26.893Z,6.30
2023-04-03T03:12:53.996Z,6.20
2023-04-03T03:15:21.143Z,6.20
2023-04-03T03:17:48.374Z,6.30
2023-04-03T03:20:16.419Z,6.30
2023-04-03T03:22:43.636Z,6.30
2023-04-03T03:25:10.919Z,6.40
2023-04-03T03:27:38.082Z,6.40
2023-04-03T03:30:06.799Z,6.30
2023-04-03T03:32:34.129Z,6.30
2023-04-03T03:35:01.440Z,6.20
2023-04-03T03:37:28.841Z,6.20
2023-04-03T03:39:56.020Z,6.20
2023-04-03T03:42:23.599Z,6.20
2023-04-03T03:44:50.748Z,6.20
2023-04-03T03:47:17.838Z,6.20
2023-04-03T03:49:44.932Z,6.20
2023-04-03T03:52:12.011Z,6.10
2023-04-03T03:54:39.457Z,6.20
2023-04-03T03:57:06.940Z,6.20
2023-04-03T03:59:34.155Z,6.20
2023-04-03T04:02:01.408Z,6.20
2023-04-03T04:04:28.508Z,6.20
2023-04-03T04:06:55.659Z,6.20
2023-04-03T04:09:22.975Z,6.30
2023-04-03T04:11:50.138Z,6.20
2023-04-03T04:14:17.359Z,6.20
2023-04-03T04:16:44.713Z,6.20
2023-04-03T04:19:12.150Z,6.10
2023-04-03T04:21:40.472Z,6.10
2023-04-03T04:24:09.867Z,6.20
2023-04-03T04:26:37.245Z,6.20
2023-04-03T04:29:04.608Z,6.30
2023-04-03T04:31:31.766Z,6.20
2023-04-03T04:33:58.989Z,6.30
2023-04-03T04:36:26.314Z,6.30
2023-04-03T04:38:56.616Z,6.20
2023-04-03T04:41:24.109Z,6.20
2023-04-03T04:43:52.752Z,6.20
2023-04-03T04:46:20.288Z,6.10
2023-04-03T04:48:47.501Z,6.10
2023-04-03T04:51:14.665Z,6.10
2023-04-03T04:54:07.622Z,6.10
2023-04-03T04:56:34.693Z,6.10
2023-04-03T04:59:02.843Z,6.10
2023-04-03T05:01:30.117Z,6.10
2023-04-03T05:03:57.126Z,6.10
2023-04-03T05:06:24.192Z,6.10
2023-04-03T05:08:51.312Z,6.20
2023-04-03T05:11:18.513Z,6.10
2023-04-03T05:13:45.573Z,6.10
2023-04-03T05:16:12.564Z,6.10
2023-04-03T05:18:39.661Z,6.10
2023-04-03T05:21:06.661Z,6.00
2023-04-03T05:23:33.823Z,6.10
2023-04-03T05:26:01.241Z,6.10
2023-04-03T05:28:28.313Z,6.10
2023-04-03T05:31:17.308Z,6.10
2023-04-03T05:33:44.438Z,6.10
2023-04-03T05:36:11.600Z,6.10
2023-04-03T05:38:39.339Z,6.10
2023-04-03T05:41:06.938Z,6.10
2023-04-03T05:43:35.722Z,6.10
2023-04-03T05:46:02.862Z,6.10
2023-04-03T05:48:30.083Z,6.00
2023-04-03T05:50:57.391Z,6.10
2023-04-03T05:53:28.842Z,6.00
2023-04-03T05:55:56.057Z,6.10
2023-04-03T05:58:23.075Z,6.20
2023-04-03T06:00:50.352Z,6.10
2023-04-03T06:03:18.139Z,6.10
2023-04-03T06:05:45.602Z,6.10
2023-04-03T06:08:13.675Z,6.10
2023-04-03T06:10:41.101Z,6.10
2023-04-03T06:13:08.368Z,6.10
2023-04-03T06:15:35.435Z,6.10
2023-04-03T06:18:02.600Z,6.10
2023-04-03T06:20:29.721Z,6.10
2023-04-03T06:22:56.835Z,6.10
2023-04-03T06:25:24.370Z,6.20
2023-04-03T06:27:51.415Z,6.20
2023-04-03T06:30:18.585Z,6.20
2023-04-03T06:32:45.715Z,6.30
2023-04-03T06:35:12.797Z,6.40
2023-04-03T06:37:39.937Z,6.40
2023-04-03T06:40:07.919Z,6.40
2023-04-03T06:42:35.010Z,6.40
2023-04-03T06:45:02.133Z,6.40
2023-04-03T06:47:29.390Z,6.30
2023-04-03T06:49:57.578Z,6.40
2023-04-03T06:52:24.712Z,6.40
2023-04-03T06:54:58.506Z,6.50
2023-04-03T06:57:26.168Z,6.50
2023-04-03T06:59:53.617Z,6.50
2023-04-03T07:02:22.069Z,6.60
2023-04-03T07:04:49.550Z,6.70
2023-04-03T07:07:17.192Z,6.80
2023-04-03T07:09:45.244Z,6.70
2023-04-03T07:12:12.770Z,6.80
2023-04-03T07:14:40.054Z,6.70
2023-04-03T07:17:07.377Z,6.40
2023-04-03T07:19:34.404Z,6.40
2023-04-03T07:22:01.903Z,6.40
2023-04-03T07:24:29.291Z,6.40
2023-04-03T07:26:56.845Z,6.30
2023-04-03T07:29:27.303Z,6.40
2023-04-03T07:31:54.712Z,6.30
2023-04-03T07:34:22.647Z,6.40
2023-04-03T07:36:51.661Z,6.50
2023-04-03T07:39:19.835Z,6.60
2023-04-03T07:41:47.020Z,6.70
2023-04-03T07:44:14.194Z,6.70
2023-04-03T07:46:41.946Z,6.60
2023-04-03T07:49:09.128Z,6.50
2023-04-03T07:51:36.490Z,6.50
2023-04-03T07:54:03.951Z,6.50
2023-04-03T07:56:31.118Z,6.50
2023-04-03T07:58:58.221Z,6.50
2023-04-03T08:01:25.415Z,6.50
2023-04-03T08:03:52.597Z,6.50
2023-04-03T08:06:26.166Z,6.60
2023-04-03T08:09:00.457Z,6.60
2023-04-03T08:11:28.183Z,6.70
2023-04-03T08:13:55.254Z,6.70
2023-04-03T08:16:24.822Z,6.60
2023-04-03T08:18:52.414Z,6.60
2023-04-03T08:21:19.635Z,6.60
2023-04-03T08:23:51.361Z,6.60
2023-04-03T08:26:22.354Z,6.70
2023-04-03T08:28:49.991Z,6.70
2023-04-03T08:31:20.004Z,6.80
2023-04-03T08:33:47.695Z,6.80
2023-04-03T08:36:24.331Z,6.90
2023-04-03T08:38:53.030Z,6.90
2023-04-03T08:41:41.188Z,6.90
2023-04-03T08:44:23.844Z,6.80
2023-04-03T08:47:03.750Z,6.90
2023-04-03T08:49:52.560Z,6.90
2023-04-03T08:52:25.134Z,6.90
2023-04-03T08:55:17.375Z,6.90
2023-04-03T08:57:47.187Z,6.90
2023-04-03T09:00:25.430Z,7.10
2023-04-03T09:02:54.635Z,7.10
2023-04-03T09:05:45.251Z,7.10
2023-04-03T09:08:27.411Z,7.00
2023-04-03T09:11:08.419Z,7.00
2023-04-03T09:13:59.975Z,7.20
2023-04-03T09:16:34.160Z,7.20
2023-04-03T09:19:14.239Z,7.10
2023-04-03T09:21:44.305Z,7.30
2023-04-03T09:24:14.999Z,7.50
2023-04-03T09:27:03.919Z,7.60
2023-04-03T09:29:31.740Z,7.50
2023-04-03T09:32:01.976Z,7.70
2023-04-03T09:34:38.380Z,7.90
2023-04-03T09:37:09.765Z,7.90
2023-04-03T09:39:55.872Z,7.90
2023-04-03T09:42:26.835Z,7.90
2023-04-03T09:44:59.654Z,7.90
2023-04-03T09:47:36.293Z,7.80
2023-04-03T09:50:15.408Z,7.70
2023-04-03T09:52:44.085Z,7.60
2023-04-03T09:55:32.616Z,7.60
2023-04-03T09:58:01.886Z,7.50
2023-04-03T10:00:34.715Z,7.70
2023-04-03T10:03:02.089Z,7.60
2023-04-03T10:05:31.282Z,7.50
2023-04-03T10:08:16.786Z,7.60
2023-04-03T10:10:48.107Z,7.80
2023-04-03T10:13:22.198Z,7.90
2023-04-03T10:16:03.419Z,8.00
2023-04-03T10:18:34.185Z,8.10
2023-04-03T10:21:17.412Z,8.10
2023-04-03T10:24:09.881Z,8.00
2023-04-03T10:27:06.873Z,7.90
2023-04-03T10:29:43.981Z,7.80
2023-04-03T10:32:32.610Z,7.90
2023-04-03T10:35:38.331Z,7.90
2023-04-03T10:38:41.915Z,7.80
2023-04-03T10:41:30.859Z,7.80
2023-04-03T10:44:21.490Z,7.70
2023-04-03T10:47:14.826Z,7.60
2023-04-03T10:50:01.634Z,7.80
2023-04-03T10:52:54.012Z,7.80
2023-04-03T10:55:27.346Z,7.90
2023-04-03T10:57:57.796Z,8.00
2023-04-03T11:00:51.096Z,7.90
2023-04-03T11:03:45.127Z,7.90
2023-04-03T11:06:16.041Z,8.00
2023-04-03T11:09:04.886Z,8.10
2023-04-03T11:11:36.557Z,8.10
2023-04-03T11:14:11.656Z,8.20
2023-04-03T11:16:53.318Z,8.00
2023-04-03T11:19:44.945Z,8.00
2023-04-03T11:22:30.249Z,8.20
2023-04-03T11:25:26.697Z,8.10
2023-04-03T11:28:12.078Z,7.90
2023-04-03T11:30:48.538Z,7.70
2023-04-03T11:33:35.072Z,7.50
2023-04-03T11:36:25.475Z,7.40
2023-04-03T11:39:02.331Z,7.40
2023-04-03T11:41:32.820Z,7.40
2023-04-03T11:44:07.323Z,7.40
2023-04-03T11:46:57.022Z,7.50
2023-04-03T11:50:03.953Z,7.60
2023-04-03T11:52:43.196Z,7.60
2023-04-03T11:55:23.196Z,7.70
2023-04-03T11:57:59.526Z,7.80
2023-04-03T12:01:04.121Z,7.80
2023-04-03T12:03:46.470Z,7.90
2023-04-03T12:06:17.935Z,7.90
2023-04-03T12:08:55.318Z,7.80
2023-04-03T12:11:31.356Z,7.90
2023-04-03T12:13:58.505Z,8.00
2023-04-03T12:16:39.032Z,7.80
2023-04-03T12:19:35.427Z,7.80
2023-04-03T12:22:12.297Z,7.70
2023-04-03T12:24:45.672Z,7.60
2023-04-03T12:27:18.689Z,7.60
2023-04-03T12:29:58.122Z,7.70
2023-04-03T12:33:05.856Z,7.80
2023-04-03T12:35:55.878Z,7.70
2023-04-03T12:38:26.602Z,7.70
2023-04-03T12:41:02.847Z,7.60
2023-04-03T12:43:57.412Z,7.60
2023-04-03T12:46:27.628Z,7.60
2023-04-03T12:49:00.110Z,7.60
2023-04-03T12:51:43.352Z,7.70
2023-04-03T12:54:18.119Z,7.60
2023-04-03T12:56:45.445Z,7.30
2023-04-03T12:59:24.779Z,7.30
2023-04-03T13:02:00.347Z,7.50
2023-04-03T13:07:26.750Z,7.40
2023-04-03T13:10:02.268Z,7.20
2023-04-03T13:12:31.856Z,7.30
2023-04-03T13:15:12.704Z,7.50
2023-04-03T13:17:42.852Z,7.80
2023-04-03T13:20:22.209Z,7.90
2023-04-03T13:22:54.884Z,8.20
2023-04-03T13:25:24.055Z,8.40
2023-04-03T13:27:53.896Z,8.50
2023-04-03T13:30:33.980Z,8.60
2023-04-03T13:33:04.043Z,8.50
2023-04-03T13:35:40.127Z,8.50
2023-04-03T13:38:24.160Z,8.60
2023-04-03T13:41:04.273Z,8.50
2023-04-03T13:43:35.036Z,8.20
2023-04-03T13:46:11.856Z,8.20
2023-04-03T13:48:45.233Z,8.10
2023-04-03T13:51:16.018Z,8.10
2023-04-03T13:53:49.724Z,8.20
2023-04-03T13:56:43.183Z,8.40
2023-04-03T13:59:13.243Z,8.40
2023-04-03T14:01:55.196Z,8.50
2023-04-03T14:04:29.013Z,8.60
2023-04-03T14:06:57.082Z,8.60
2023-04-03T14:09:26.402Z,8.70
2023-04-03T14:11:56.806Z,8.70
2023-04-03T14:14:32.502Z,8.60
2023-04-03T14:17:03.389Z,8.50
2023-04-03T14:19:34.992Z,8.50
2023-04-03T14:22:17.160Z,8.50
2023-04-03T14:24:45.740Z,8.40
2023-04-03T14:27:23.786Z,8.40
2023-04-03T14:29:52.617Z,8.30
2023-04-03T14:32:22.033Z,8.10
2023-04-03T14:34:51.273Z,8.00
2023-04-03T14:37:27.605Z,7.90
2023-04-03T14:39:55.316Z,7.90
2023-04-03T14:42:26.562Z,7.80
2023-04-03T14:44:54.342Z,7.90
2023-04-03T14:47:31.211Z,7.90
2023-04-03T14:50:01.504Z,7.80
2023-04-03T14:52:32.392Z,7.70
2023-04-03T14:55:00.200Z,7.60
2023-04-03T14:57:29.359Z,7.60
2023-04-03T14:59:56.569Z,7.60
2023-04-03T15:02:33.254Z,7.60
2023-04-03T15:05:04.069Z,7.60
2023-04-03T15:07:34.750Z,7.50
2023-04-03T15:10:24.828Z,7.60
2023-04-03T15:12:53.706Z,7.70
2023-04-03T15:15:22.384Z,7.60
2023-04-03T15:17:55.132Z,7.60
2023-04-03T15:20:25.488Z,7.60
2023-04-03T15:22:52.764Z,7.70
2023-04-03T15:25:20.021Z,7.70
2023-04-03T15:27:47.223Z,7.70
2023-04-03T15:30:20.002Z,7.70
2023-04-03T15:32:47.774Z,7.70
2023-04-03T15:35:15.208Z,7.70
2023-04-03T15:37:42.862Z,7.70
2023-04-03T15:40:11.117Z,7.70
2023-04-03T15:42:39.088Z,7.60
2023-04-03T15:45:07.230Z,7.70
2023-04-03T15:47:34.464Z,7.70
2023-04-03T15:50:01.834Z,7.70
2023-04-03T15:52:29.047Z,7.70
2023-04-03T15:54:56.234Z,7.60
2023-04-03T15:57:27.352Z,7.60
2023-04-03T15:59:54.750Z,7.60
2023-04-03T16:02:22.564Z,7.60
2023-04-03T16:04:50.552Z,7.60
2023-04-03T16:07:17.757Z,7.60
2023-04-03T16:09:45.025Z,7.60
2023-04-03T16:12:12.168Z,7.60
2023-04-03T16:14:41.263Z,7.60
2023-04-03T16:17:08.408Z,7.60
2023-04-03T16:19:36.104Z,7.60
2023-04-03T16:22:03.497Z,7.60
2023-04-03T16:24:31.093Z,7.60
2023-04-03T16:26:58.188Z,7.60
2023-04-03T16:29:25.434Z,7.60
2023-04-03T16:31:53.100Z,7.50
2023-04-03T16:34:20.657Z,7.50
2023-04-03T16:36:47.726Z,7.50
2023-04-03T16:39:15.022Z,7.50
2023-04-03T16:41:42.158Z,7.50
2023-04-03T16:44:09.280Z,7.50
2023-04-03T16:46:36.469Z,7.50
2023-04-03T16:49:04.162Z,7.40
2023-04-03T16:51:32.829Z,7.40
2023-04-03T16:54:00.310Z,7.40
2023-04-03T16:56:30.164Z,7.40
2023-04-03T16:58:57.481Z,7.30
2023-04-03T17:01:25.534Z,7.30
2023-04-03T17:03:52.830Z,7.30
2023-04-03T17:06:22.766Z,7.30
2023-04-03T17:08:51.990Z,7.30
2023-04-03T17:11:21.861Z,7.20
2023-04-03T17:13:49.007Z,7.20
2023-04-03T17:16:17.302Z,7.20
2023-04-03T17:18:47.305Z,7.20
2023-04-03T17:21:15.750Z,7.20
2023-04-03T17:23:45.900Z,7.20
2023-04-03T17:26:13.533Z,7.20
2023-04-03T17:28:43.515Z,7.20
2023-04-03T17:31:11.530Z,7.10
2023-04-03T17:33:38.656Z,7.10
2023-04-03T17:36:06.599Z,7.10
2023-04-03T17:38:34.684Z,7.10
2023-04-03T17:41:06.749Z,7.10
2023-04-03T17:43:34.821Z,7.00
2023-04-03T17:46:04.292Z,7.10
2023-04-03T17:48:33.153Z,7.10
2023-04-03T17:51:04.425Z,7.10
2023-04-03T17:53:31.492Z,7.10
2023-04-03T17:55:58.604Z,7.10
2023-04-03T17:58:26.295Z,7.10
2023-04-03T18:00:54.455Z,7.10
2023-04-03T18:03:21.492Z,7.10
2023-04-03T18:05:50.918Z,7.10
2023-04-03T18:08:18.174Z,7.10
2023-04-03T18:10:45.188Z,7.10
2023-04-03T18:13:13.013Z,7.10
2023-04-03T18:15:45.784Z,7.00
2023-04-03T18:18:13.159Z,7.10
2023-04-03T18:20:40.314Z,7.10
2023-04-03T18:23:07.349Z,7.10
2023-04-03T18:25:34.660Z,7.00
2023-04-03T18:28:06.529Z,7.10
2023-04-03T18:30:35.236Z,7.20
2023-04-03T18:33:02.818Z,7.40
2023-04-03T18:35:30.299Z,7.60
2023-04-03T18:37:57.455Z,7.50
2023-04-03T18:40:24.705Z,7.50
2023-04-03T18:42:53.517Z,7.70
2023-04-03T18:45:23.724Z,7.60
2023-04-03T18:47:51.974Z,7.50
2023-04-03T18:50:19.343Z,7.60
2023-04-03T18:52:50.738Z,7.60
2023-04-03T18:55:20.498Z,7.60
2023-04-03T18:57:48.657Z,7.60
2023-04-03T19:00:17.807Z,7.50
2023-04-03T19:02:45.722Z,7.50
2023-04-03T19:05:16.495Z,7.40
2023-04-03T19:07:45.205Z,7.40
2023-04-03T19:10:20.201Z,7.50
2023-04-03T19:12:50.219Z,7.40
2023-04-03T19:15:20.068Z,7.50
2023-04-03T19:17:47.254Z,7.40
2023-04-03T19:20:14.882Z,7.40
2023-04-03T19:22:42.394Z,7.40
2023-04-03T19:25:12.093Z,7.40
2023-04-03T19:27:41.658Z,7.40
2023-04-03T19:30:11.417Z,7.30
2023-04-03T19:32:38.615Z,7.40
2023-04-03T19:35:06.372Z,7.30
2023-04-03T19:37:33.551Z,7.20
2023-04-03T19:40:02.191Z,7.20
2023-04-03T19:42:31.486Z,7.20
2023-04-03T19:44:59.391Z,7.10
2023-04-03T19:47:26.511Z,7.10
2023-04-03T19:49:53.786Z,7.10
2023-04-03T19:52:20.856Z,7.20
2023-04-03T19:54:47.869Z,7.10
2023-04-03T19:57:15.567Z,7.10
2023-04-03T19:59:42.623Z,7.10
2023-04-03T20:02:10.055Z,7.10
2023-04-03T20:04:37.309Z,7.10
2023-04-03T20:07:05.331Z,7.00
2023-04-03T20:09:33.182Z,6.90
2023-04-03T20:12:01.417Z,6.90
2023-04-03T20:14:28.767Z,6.80
2023-04-03T20:16:55.907Z,6.80
2023-04-03T20:19:27.113Z,6.80
2023-04-03T20:21:54.288Z,6.70
2023-04-03T20:24:21.810Z,6.70
2023-04-03T20:26:48.950Z,6.60
2023-04-03T20:29:16.979Z,6.60
2023-04-03T20:31:44.930Z,6.60
2023-04-03T20:34:13.647Z,6.60
2023-04-03T20:36:40.762Z,6.60
2023-04-03T20:39:07.914Z,6.50
2023-04-03T20:41:37.584Z,6.40
2023-04-03T20:44:04.886Z,6.40
2023-04-03T20:46:49.153Z,6.40
2023-04-03T20:49:19.491Z,6.30
2023-04-03T20:51:46.666Z,6.30
2023-04-03T20:54:14.878Z,6.30
2023-04-03T20:56:42.234Z,6.30
2023-04-03T20:59:10.375Z,6.30
2023-04-03T21:01:38.058Z,6.30
2023-04-03T21:04:14.470Z,6.40
2023-04-03T21:07:19.387Z,6.40
2023-04-03T21:10:24.960Z,6.30
2023-04-03T21:13:29.563Z,6.20
2023-04-03T21:15:56.497Z,6.30
2023-04-03T21:18:23.696Z,6.30
2023-04-03T21:20:51.481Z,6.30
2023-04-03T21:23:20.646Z,6.30
2023-04-03T21:25:49.033Z,6.20
2023-04-03T21:28:16.944Z,6.30
2023-04-03T21:30:44.327Z,6.20
2023-04-03T21:33:13.054Z,6.20
2023-04-03T21:35:40.484Z,6.20
2023-04-03T21:38:07.550Z,6.10
2023-04-03T21:40:34.882Z,6.20
2023-04-03T21:43:02.159Z,6.10
2023-04-03T21:45:29.755Z,6.00
2023-04-03T21:47:56.916Z,6.00
2023-04-03T21:50:23.976Z,6.00
2023-04-03T21:52:54.409Z,6.00
2023-04-03T21:55:21.397Z,6.00
2023-04-03T21:57:53.867Z,6.00
2023-04-03T22:00:23.059Z,6.00
2023-04-03T22:02:55.057Z,5.90
2023-04-03T22:05:27.978Z,6.00
2023-04-03T22:07:55.040Z,5.90
2023-04-03T22:10:22.222Z,5.90
2023-04-03T22:12:49.505Z,5.90
2023-04-03T22:15:16.541Z,5.80
2023-04-03T22:17:44.849Z,5.80
2023-04-03T22:20:12.074Z,5.90
2023-04-03T22:22:39.156Z,5.80
2023-04-03T22:25:06.760Z,5.70
2023-04-03T22:27:34.025Z,5.70
2023-04-03T22:30:01.198Z,5.70
2023-04-03T22:32:28.451Z,5.70
2023-04-03T22:34:55.512Z,5.70
2023-04-03T22:37:22.777Z,5.70
2023-04-03T22:39:49.769Z,5.70
2023-04-03T22:42:16.845Z,5.70
2023-04-03T22:44:43.816Z,5.70
2023-04-03T22:47:10.918Z,5.70
2023-04-03T22:49:38.664Z,5.60
2023-04-03T22:52:05.909Z,5.60
2023-04-03T22:54:32.994Z,5.60
2023-04-03T22:57:00.117Z,5.60
2023-04-03T22:59:27.278Z,5.60
2023-04-03T23:01:54.416Z,5.60
2023-04-03T23:04:21.515Z,5.60
2023-04-03T23:06:48.683Z,5.60
2023-04-03T23:09:16.490Z,5.60
2023-04-03T23:11:43.829Z,5.60
2023-04-03T23:14:10.977Z,5.70
2023-04-03T23:16:38.039Z,5.60
2023-04-03T23:19:05.227Z,5.60
2023-04-03T23:21:32.248Z,5.60
2023-04-03T23:23:59.432Z,5.60
2023-04-03T23:26:26.837Z,5.50
2023-04-03T23:28:53.933Z,5.50
2023-04-03T23:31:21.595Z,5.50
2023-04-03T23:33:48.731Z,5.50
2023-04-03T23:36:16.307Z,5.50
2023-04-03T23:38:43.509Z,5.50
2023-04-03T23:41:10.649Z,5.40
2023-04-03T23:43:37.745Z,5.40
2023-04-03T23:46:04.856Z,5.30
2023-04-03T23:48:31.933Z,5.30
2023-04-03T23:50:59.021Z,5.30
2023-04-03T23:53:26.236Z,5.30
2023-04-03T23:55:53.461Z,5.30
2023-04-03T23:58:20.936Z,5.20
